sensor_id;sensor_type;location;lat;lon;timestamp;P1;durP1;ratioP1;P2;durP2;ratioP2
44774;SDS011;31340;51.402;0.016;2024-03-08T00:00:14;90.75;;;42.53;;
44774;SDS011;31340;51.402;0.016;2024-03-08T00:02:47;79.90;;;40.78;;
44774;SDS011;31340;51.402;0.016;2024-03-08T00:05:17;82.90;;;38.92;;
44774;SDS011;31340;51.402;0.016;2024-03-08T00:07:45;76.28;;;40.05;;
44774;SDS011;31340;51.402;0.016;2024-03-08T00:10:13;81.78;;;40.67;;
44774;SDS011;31340;51.402;0.016;2024-03-08T00:12:42;85.93;;;42.13;;
44774;SDS011;31340;51.402;0.016;2024-03-08T00:15:15;86.78;;;41.85;;
44774;SDS011;31340;51.402;0.016;2024-03-08T00:17:46;81.13;;;41.38;;
44774;SDS011;31340;51.402;0.016;2024-03-08T00:20:16;83.47;;;40.65;;
44774;SDS011;31340;51.402;0.016;2024-03-08T00:25:13;82.55;;;40.25;;
44774;SDS011;31340;51.402;0.016;2024-03-08T00:27:41;93.22;;;43.00;;
44774;SDS011;31340;51.402;0.016;2024-03-08T00:30:10;84.70;;;42.28;;
44774;SDS011;31340;51.402;0.016;2024-03-08T00:32:41;85.07;;;41.50;;
44774;SDS011;31340;51.402;0.016;2024-03-08T00:35:09;80.22;;;40.83;;
44774;SDS011;31340;51.402;0.016;2024-03-08T00:37:36;95.80;;;44.72;;
44774;SDS011;31340;51.402;0.016;2024-03-08T00:40:04;90.32;;;44.03;;
44774;SDS011;31340;51.402;0.016;2024-03-08T00:42:34;94.40;;;45.22;;
44774;SDS011;31340;51.402;0.016;2024-03-08T00:45:02;85.25;;;42.38;;
44774;SDS011;31340;51.402;0.016;2024-03-08T00:47:30;91.25;;;43.25;;
44774;SDS011;31340;51.402;0.016;2024-03-08T00:49:58;97.07;;;46.55;;
44774;SDS011;31340;51.402;0.016;2024-03-08T00:52:26;96.50;;;45.90;;
44774;SDS011;31340;51.402;0.016;2024-03-08T00:54:54;91.75;;;45.78;;
44774;SDS011;31340;51.402;0.016;2024-03-08T00:57:23;90.53;;;45.55;;
44774;SDS011;31340;51.402;0.016;2024-03-08T00:59:50;99.00;;;46.50;;
44774;SDS011;31340;51.402;0.016;2024-03-08T01:02:19;89.25;;;45.65;;
44774;SDS011;31340;51.402;0.016;2024-03-08T01:04:48;101.70;;;45.65;;
44774;SDS011;31340;51.402;0.016;2024-03-08T01:07:15;86.13;;;44.38;;
44774;SDS011;31340;51.402;0.016;2024-03-08T01:09:43;92.68;;;45.38;;
44774;SDS011;31340;51.402;0.016;2024-03-08T01:12:11;87.32;;;44.00;;
44774;SDS011;31340;51.402;0.016;2024-03-08T01:14:39;87.55;;;44.08;;
44774;SDS011;31340;51.402;0.016;2024-03-08T01:17:06;103.07;;;46.17;;
44774;SDS011;31340;51.402;0.016;2024-03-08T01:19:34;97.53;;;44.47;;
44774;SDS011;31340;51.402;0.016;2024-03-08T01:22:02;84.68;;;43.63;;
44774;SDS011;31340;51.402;0.016;2024-03-08T01:24:30;89.72;;;44.03;;
44774;SDS011;31340;51.402;0.016;2024-03-08T01:26:58;86.28;;;44.95;;
44774;SDS011;31340;51.402;0.016;2024-03-08T01:29:25;94.40;;;44.65;;
44774;SDS011;31340;51.402;0.016;2024-03-08T01:31:53;98.80;;;44.13;;
44774;SDS011;31340;51.402;0.016;2024-03-08T01:34:21;89.90;;;44.08;;
44774;SDS011;31340;51.402;0.016;2024-03-08T01:36:49;89.20;;;43.47;;
44774;SDS011;31340;51.402;0.016;2024-03-08T01:39:17;87.88;;;42.13;;
44774;SDS011;31340;51.402;0.016;2024-03-08T01:41:44;88.43;;;43.78;;
44774;SDS011;31340;51.402;0.016;2024-03-08T01:44:12;89.75;;;42.13;;
44774;SDS011;31340;51.402;0.016;2024-03-08T01:46:44;84.45;;;39.55;;
44774;SDS011;31340;51.402;0.016;2024-03-08T01:49:13;80.95;;;39.55;;
44774;SDS011;31340;51.402;0.016;2024-03-08T01:51:41;78.55;;;39.55;;
44774;SDS011;31340;51.402;0.016;2024-03-08T01:54:09;86.28;;;39.25;;
44774;SDS011;31340;51.402;0.016;2024-03-08T01:56:38;85.68;;;39.25;;
44774;SDS011;31340;51.402;0.016;2024-03-08T01:59:07;84.57;;;38.67;;
44774;SDS011;31340;51.402;0.016;2024-03-08T02:01:35;78.05;;;41.63;;
44774;SDS011;31340;51.402;0.016;2024-03-08T02:04:03;81.85;;;41.00;;
44774;SDS011;31340;51.402;0.016;2024-03-08T02:06:33;75.90;;;37.22;;
44774;SDS011;31340;51.402;0.016;2024-03-08T02:09:01;79.30;;;39.63;;
44774;SDS011;31340;51.402;0.016;2024-03-08T02:11:33;80.43;;;38.92;;
44774;SDS011;31340;51.402;0.016;2024-03-08T02:14:03;83.47;;;38.27;;
44774;SDS011;31340;51.402;0.016;2024-03-08T02:16:33;78.15;;;38.20;;
44774;SDS011;31340;51.402;0.016;2024-03-08T02:19:00;81.28;;;39.30;;
44774;SDS011;31340;51.402;0.016;2024-03-08T02:21:28;79.22;;;37.25;;
44774;SDS011;31340;51.402;0.016;2024-03-08T02:23:56;79.32;;;37.47;;
44774;SDS011;31340;51.402;0.016;2024-03-08T02:26:24;69.75;;;35.17;;
44774;SDS011;31340;51.402;0.016;2024-03-08T02:28:52;76.35;;;36.67;;
44774;SDS011;31340;51.402;0.016;2024-03-08T02:31:21;74.00;;;35.53;;
44774;SDS011;31340;51.402;0.016;2024-03-08T02:33:48;77.25;;;34.78;;
44774;SDS011;31340;51.402;0.016;2024-03-08T02:36:16;72.05;;;36.95;;
44774;SDS011;31340;51.402;0.016;2024-03-08T02:38:44;71.20;;;36.40;;
44774;SDS011;31340;51.402;0.016;2024-03-08T02:41:11;69.25;;;35.53;;
44774;SDS011;31340;51.402;0.016;2024-03-08T02:43:39;72.60;;;35.05;;
44774;SDS011;31340;51.402;0.016;2024-03-08T02:46:07;74.95;;;36.67;;
44774;SDS011;31340;51.402;0.016;2024-03-08T02:48:34;74.63;;;35.65;;
44774;SDS011;31340;51.402;0.016;2024-03-08T02:51:02;71.32;;;35.63;;
44774;SDS011;31340;51.402;0.016;2024-03-08T02:53:30;79.32;;;37.30;;
44774;SDS011;31340;51.402;0.016;2024-03-08T02:55:58;78.90;;;36.30;;
44774;SDS011;31340;51.402;0.016;2024-03-08T02:58:26;69.13;;;35.92;;
44774;SDS011;31340;51.402;0.016;2024-03-08T03:00:54;70.93;;;35.13;;
44774;SDS011;31340;51.402;0.016;2024-03-08T03:03:22;76.63;;;36.92;;
44774;SDS011;31340;51.402;0.016;2024-03-08T03:05:49;82.18;;;36.10;;
44774;SDS011;31340;51.402;0.016;2024-03-08T03:08:17;71.07;;;35.88;;
44774;SDS011;31340;51.402;0.016;2024-03-08T03:10:45;74.90;;;35.42;;
44774;SDS011;31340;51.402;0.016;2024-03-08T03:13:13;75.40;;;35.38;;
44774;SDS011;31340;51.402;0.016;2024-03-08T03:15:41;76.03;;;34.95;;
44774;SDS011;31340;51.402;0.016;2024-03-08T03:18:09;73.25;;;34.65;;
44774;SDS011;31340;51.402;0.016;2024-03-08T03:20:36;69.90;;;34.25;;
44774;SDS011;31340;51.402;0.016;2024-03-08T03:23:08;74.28;;;32.80;;
44774;SDS011;31340;51.402;0.016;2024-03-08T03:25:36;70.55;;;34.50;;
44774;SDS011;31340;51.402;0.016;2024-03-08T03:28:07;75.40;;;35.33;;
44774;SDS011;31340;51.402;0.016;2024-03-08T03:30:38;79.65;;;35.55;;
44774;SDS011;31340;51.402;0.016;2024-03-08T03:33:06;76.38;;;36.40;;
44774;SDS011;31340;51.402;0.016;2024-03-08T03:35:35;77.18;;;36.03;;
44774;SDS011;31340;51.402;0.016;2024-03-08T03:38:04;66.85;;;32.53;;
44774;SDS011;31340;51.402;0.016;2024-03-08T03:40:38;72.50;;;34.10;;
44774;SDS011;31340;51.402;0.016;2024-03-08T03:43:07;84.57;;;34.85;;
44774;SDS011;31340;51.402;0.016;2024-03-08T03:45:37;74.80;;;34.78;;
44774;SDS011;31340;51.402;0.016;2024-03-08T03:48:06;73.00;;;34.45;;
44774;SDS011;31340;51.402;0.016;2024-03-08T03:50:37;72.75;;;34.25;;
44774;SDS011;31340;51.402;0.016;2024-03-08T03:53:06;79.35;;;35.40;;
44774;SDS011;31340;51.402;0.016;2024-03-08T03:55:36;72.05;;;35.25;;
44774;SDS011;31340;51.402;0.016;2024-03-08T04:00:38;79.90;;;35.33;;
44774;SDS011;31340;51.402;0.016;2024-03-08T04:03:06;75.20;;;35.45;;
44774;SDS011;31340;51.402;0.016;2024-03-08T04:05:35;73.70;;;36.25;;
44774;SDS011;31340;51.402;0.016;2024-03-08T04:08:03;68.47;;;33.97;;
44774;SDS011;31340;51.402;0.016;2024-03-08T04:10:31;69.35;;;33.17;;
44774;SDS011;31340;51.402;0.016;2024-03-08T04:12:58;73.93;;;35.35;;
44774;SDS011;31340;51.402;0.016;2024-03-08T04:15:26;74.43;;;34.42;;
44774;SDS011;31340;51.402;0.016;2024-03-08T04:17:54;70.57;;;33.65;;
44774;SDS011;31340;51.402;0.016;2024-03-08T04:20:22;77.20;;;35.78;;
44774;SDS011;31340;51.402;0.016;2024-03-08T04:22:50;76.93;;;34.75;;
44774;SDS011;31340;51.402;0.016;2024-03-08T04:25:17;82.70;;;37.15;;
44774;SDS011;31340;51.402;0.016;2024-03-08T04:27:45;74.80;;;32.92;;
44774;SDS011;31340;51.402;0.016;2024-03-08T04:30:14;71.30;;;34.00;;
44774;SDS011;31340;51.402;0.016;2024-03-08T04:32:42;63.88;;;32.30;;
44774;SDS011;31340;51.402;0.016;2024-03-08T04:35:10;77.65;;;34.65;;
44774;SDS011;31340;51.402;0.016;2024-03-08T04:37:39;73.72;;;34.15;;
44774;SDS011;31340;51.402;0.016;2024-03-08T04:40:07;71.13;;;32.80;;
44774;SDS011;31340;51.402;0.016;2024-03-08T04:42:35;71.63;;;32.72;;
44774;SDS011;31340;51.402;0.016;2024-03-08T04:45:06;70.90;;;33.28;;
44774;SDS011;31340;51.402;0.016;2024-03-08T04:47:35;71.18;;;32.72;;
44774;SDS011;31340;51.402;0.016;2024-03-08T04:50:04;71.38;;;33.53;;
44774;SDS011;31340;51.402;0.016;2024-03-08T04:52:32;65.72;;;32.70;;
44774;SDS011;31340;51.402;0.016;2024-03-08T04:55:00;72.22;;;33.90;;
44774;SDS011;31340;51.402;0.016;2024-03-08T04:57:28;73.13;;;33.88;;
44774;SDS011;31340;51.402;0.016;2024-03-08T04:59:56;63.33;;;32.55;;
44774;SDS011;31340;51.402;0.016;2024-03-08T05:02:26;71.78;;;33.47;;
44774;SDS011;31340;51.402;0.016;2024-03-08T05:04:53;70.30;;;32.72;;
44774;SDS011;31340;51.402;0.016;2024-03-08T05:07:22;74.35;;;35.67;;
44774;SDS011;31340;51.402;0.016;2024-03-08T05:09:49;68.90;;;33.70;;
44774;SDS011;31340;51.402;0.016;2024-03-08T05:12:19;77.38;;;34.67;;
44774;SDS011;31340;51.402;0.016;2024-03-08T05:14:47;71.85;;;32.92;;
44774;SDS011;31340;51.402;0.016;2024-03-08T05:17:17;67.30;;;32.33;;
44774;SDS011;31340;51.402;0.016;2024-03-08T05:19:45;69.88;;;32.13;;
44774;SDS011;31340;51.402;0.016;2024-03-08T05:22:12;69.50;;;32.85;;
44774;SDS011;31340;51.402;0.016;2024-03-08T05:24:40;69.85;;;32.22;;
44774;SDS011;31340;51.402;0.016;2024-03-08T05:27:08;69.93;;;33.20;;
44774;SDS011;31340;51.402;0.016;2024-03-08T05:29:36;68.20;;;33.85;;
44774;SDS011;31340;51.402;0.016;2024-03-08T05:32:05;69.45;;;31.48;;
44774;SDS011;31340;51.402;0.016;2024-03-08T05:34:33;68.75;;;31.73;;
44774;SDS011;31340;51.402;0.016;2024-03-08T05:37:01;75.68;;;33.88;;
44774;SDS011;31340;51.402;0.016;2024-03-08T05:39:29;69.28;;;33.08;;
44774;SDS011;31340;51.402;0.016;2024-03-08T05:41:57;89.70;;;35.40;;
44774;SDS011;31340;51.402;0.016;2024-03-08T05:44:25;72.90;;;34.42;;
44774;SDS011;31340;51.402;0.016;2024-03-08T05:46:56;73.32;;;33.60;;
44774;SDS011;31340;51.402;0.016;2024-03-08T05:49:23;68.60;;;32.10;;
44774;SDS011;31340;51.402;0.016;2024-03-08T05:51:51;72.22;;;32.13;;
44774;SDS011;31340;51.402;0.016;2024-03-08T05:54:21;74.13;;;32.90;;
44774;SDS011;31340;51.402;0.016;2024-03-08T05:56:52;66.50;;;32.38;;
44774;SDS011;31340;51.402;0.016;2024-03-08T05:59:20;75.55;;;35.63;;
44774;SDS011;31340;51.402;0.016;2024-03-08T06:01:50;67.88;;;32.33;;
44774;SDS011;31340;51.402;0.016;2024-03-08T06:04:18;76.88;;;35.08;;
44774;SDS011;31340;51.402;0.016;2024-03-08T06:06:45;74.50;;;33.33;;
44774;SDS011;31340;51.402;0.016;2024-03-08T06:09:18;70.03;;;33.88;;
44774;SDS011;31340;51.402;0.016;2024-03-08T06:11:52;85.75;;;37.38;;
44774;SDS011;31340;51.402;0.016;2024-03-08T06:14:21;78.90;;;36.45;;
44774;SDS011;31340;51.402;0.016;2024-03-08T06:16:50;84.10;;;37.10;;
44774;SDS011;31340;51.402;0.016;2024-03-08T06:19:18;85.57;;;36.78;;
44774;SDS011;31340;51.402;0.016;2024-03-08T06:21:45;85.75;;;36.72;;
44774;SDS011;31340;51.402;0.016;2024-03-08T06:24:13;81.45;;;37.90;;
44774;SDS011;31340;51.402;0.016;2024-03-08T06:26:42;83.28;;;36.88;;
44774;SDS011;31340;51.402;0.016;2024-03-08T06:29:10;88.30;;;38.78;;
44774;SDS011;31340;51.402;0.016;2024-03-08T06:31:38;86.32;;;38.20;;
44774;SDS011;31340;51.402;0.016;2024-03-08T06:34:06;83.50;;;36.38;;
44774;SDS011;31340;51.402;0.016;2024-03-08T06:36:35;86.35;;;37.95;;
44774;SDS011;31340;51.402;0.016;2024-03-08T06:39:05;86.03;;;39.60;;
44774;SDS011;31340;51.402;0.016;2024-03-08T06:41:37;97.57;;;38.13;;
44774;SDS011;31340;51.402;0.016;2024-03-08T06:44:05;95.50;;;39.13;;
44774;SDS011;31340;51.402;0.016;2024-03-08T06:46:35;87.82;;;38.83;;
44774;SDS011;31340;51.402;0.016;2024-03-08T06:49:03;91.28;;;40.35;;
44774;SDS011;31340;51.402;0.016;2024-03-08T06:51:31;82.15;;;37.50;;
44774;SDS011;31340;51.402;0.016;2024-03-08T06:53:59;84.93;;;40.13;;
44774;SDS011;31340;51.402;0.016;2024-03-08T06:56:27;101.40;;;39.47;;
44774;SDS011;31340;51.402;0.016;2024-03-08T06:58:56;89.20;;;39.28;;
44774;SDS011;31340;51.402;0.016;2024-03-08T07:01:24;92.47;;;40.15;;
44774;SDS011;31340;51.402;0.016;2024-03-08T07:03:52;92.15;;;39.47;;
44774;SDS011;31340;51.402;0.016;2024-03-08T07:06:19;85.22;;;38.00;;
44774;SDS011;31340;51.402;0.016;2024-03-08T07:08:47;80.97;;;37.78;;
44774;SDS011;31340;51.402;0.016;2024-03-08T07:11:16;94.72;;;38.30;;
44774;SDS011;31340;51.402;0.016;2024-03-08T07:13:45;83.32;;;37.10;;
44774;SDS011;31340;51.402;0.016;2024-03-08T07:16:13;93.47;;;39.40;;
44774;SDS011;31340;51.402;0.016;2024-03-08T07:18:41;84.78;;;37.38;;
44774;SDS011;31340;51.402;0.016;2024-03-08T07:21:10;85.55;;;38.25;;
44774;SDS011;31340;51.402;0.016;2024-03-08T07:23:38;87.55;;;38.22;;
44774;SDS011;31340;51.402;0.016;2024-03-08T07:26:42;93.03;;;40.45;;
44774;SDS011;31340;51.402;0.016;2024-03-08T07:29:10;89.15;;;39.70;;
44774;SDS011;31340;51.402;0.016;2024-03-08T07:31:38;77.40;;;36.30;;
44774;SDS011;31340;51.402;0.016;2024-03-08T07:34:08;96.93;;;40.55;;
44774;SDS011;31340;51.402;0.016;2024-03-08T07:36:35;85.03;;;39.55;;
44774;SDS011;31340;51.402;0.016;2024-03-08T07:39:03;83.57;;;38.75;;
44774;SDS011;31340;51.402;0.016;2024-03-08T07:41:39;87.82;;;39.65;;
44774;SDS011;31340;51.402;0.016;2024-03-08T07:44:09;79.07;;;35.97;;
44774;SDS011;31340;51.402;0.016;2024-03-08T07:46:37;92.95;;;40.10;;
44774;SDS011;31340;51.402;0.016;2024-03-08T07:49:05;90.40;;;37.97;;
44774;SDS011;31340;51.402;0.016;2024-03-08T07:51:33;82.28;;;38.30;;
44774;SDS011;31340;51.402;0.016;2024-03-08T07:54:02;88.35;;;38.63;;
44774;SDS011;31340;51.402;0.016;2024-03-08T07:56:31;95.07;;;40.73;;
44774;SDS011;31340;51.402;0.016;2024-03-08T07:58:59;83.65;;;37.45;;
44774;SDS011;31340;51.402;0.016;2024-03-08T08:01:27;79.72;;;38.28;;
44774;SDS011;31340;51.402;0.016;2024-03-08T08:03:54;79.43;;;36.08;;
44774;SDS011;31340;51.402;0.016;2024-03-08T08:06:23;92.45;;;38.58;;
44774;SDS011;31340;51.402;0.016;2024-03-08T08:08:52;80.10;;;37.47;;
44774;SDS011;31340;51.402;0.016;2024-03-08T08:11:20;87.80;;;36.58;;
44774;SDS011;31340;51.402;0.016;2024-03-08T08:13:48;85.55;;;37.45;;
44774;SDS011;31340;51.402;0.016;2024-03-08T08:16:15;77.28;;;36.78;;
44774;SDS011;31340;51.402;0.016;2024-03-08T08:18:43;80.38;;;35.78;;
44774;SDS011;31340;51.402;0.016;2024-03-08T08:21:13;79.32;;;35.97;;
44774;SDS011;31340;51.402;0.016;2024-03-08T08:23:40;71.43;;;35.00;;
44774;SDS011;31340;51.402;0.016;2024-03-08T08:26:08;74.35;;;35.55;;
44774;SDS011;31340;51.402;0.016;2024-03-08T08:28:38;69.78;;;34.20;;
44774;SDS011;31340;51.402;0.016;2024-03-08T08:31:08;76.43;;;36.22;;
44774;SDS011;31340;51.402;0.016;2024-03-08T08:33:35;69.30;;;31.77;;
44774;SDS011;31340;51.402;0.016;2024-03-08T08:36:04;74.95;;;34.13;;
44774;SDS011;31340;51.402;0.016;2024-03-08T08:38:32;66.05;;;33.30;;
44774;SDS011;31340;51.402;0.016;2024-03-08T08:41:00;69.88;;;33.58;;
44774;SDS011;31340;51.402;0.016;2024-03-08T08:43:29;72.68;;;33.97;;
44774;SDS011;31340;51.402;0.016;2024-03-08T08:45:58;68.95;;;32.78;;
44774;SDS011;31340;51.402;0.016;2024-03-08T08:48:25;69.03;;;33.05;;
44774;SDS011;31340;51.402;0.016;2024-03-08T08:50:54;77.57;;;31.90;;
44774;SDS011;31340;51.402;0.016;2024-03-08T08:53:22;63.67;;;31.45;;
44774;SDS011;31340;51.402;0.016;2024-03-08T08:55:50;64.78;;;31.77;;
44774;SDS011;31340;51.402;0.016;2024-03-08T08:58:20;62.25;;;31.00;;
44774;SDS011;31340;51.402;0.016;2024-03-08T09:00:48;66.45;;;31.45;;
44774;SDS011;31340;51.402;0.016;2024-03-08T09:03:17;65.50;;;32.42;;
44774;SDS011;31340;51.402;0.016;2024-03-08T09:05:44;62.47;;;30.23;;
44774;SDS011;31340;51.402;0.016;2024-03-08T09:08:12;66.47;;;31.02;;
44774;SDS011;31340;51.402;0.016;2024-03-08T09:10:40;62.33;;;30.67;;
44774;SDS011;31340;51.402;0.016;2024-03-08T09:13:08;61.08;;;30.48;;
44774;SDS011;31340;51.402;0.016;2024-03-08T09:15:43;60.85;;;29.35;;
44774;SDS011;31340;51.402;0.016;2024-03-08T09:18:11;61.55;;;31.35;;
44774;SDS011;31340;51.402;0.016;2024-03-08T09:20:39;70.90;;;31.42;;
44774;SDS011;31340;51.402;0.016;2024-03-08T09:23:08;54.40;;;28.27;;
44774;SDS011;31340;51.402;0.016;2024-03-08T09:25:35;57.22;;;30.05;;
44774;SDS011;31340;51.402;0.016;2024-03-08T09:28:03;59.10;;;28.77;;
44774;SDS011;31340;51.402;0.016;2024-03-08T09:30:33;54.05;;;28.60;;
44774;SDS011;31340;51.402;0.016;2024-03-08T09:33:02;56.08;;;27.88;;
44774;SDS011;31340;51.402;0.016;2024-03-08T09:35:30;34.42;;;18.30;;
44774;SDS011;31340;51.402;0.016;2024-03-08T09:37:57;52.85;;;27.50;;
44774;SDS011;31340;51.402;0.016;2024-03-08T09:40:25;54.20;;;28.83;;
44774;SDS011;31340;51.402;0.016;2024-03-08T09:42:54;55.50;;;31.05;;
44774;SDS011;31340;51.402;0.016;2024-03-08T09:45:22;51.13;;;26.63;;
44774;SDS011;31340;51.402;0.016;2024-03-08T09:47:52;54.35;;;28.13;;
44774;SDS011;31340;51.402;0.016;2024-03-08T09:50:21;49.15;;;27.48;;
44774;SDS011;31340;51.402;0.016;2024-03-08T09:52:49;57.40;;;29.38;;
44774;SDS011;31340;51.402;0.016;2024-03-08T09:55:18;51.70;;;27.58;;
44774;SDS011;31340;51.402;0.016;2024-03-08T09:57:51;53.25;;;27.52;;
44774;SDS011;31340;51.402;0.016;2024-03-08T10:00:38;55.30;;;27.40;;
44774;SDS011;31340;51.402;0.016;2024-03-08T10:03:06;48.67;;;26.52;;
44774;SDS011;31340;51.402;0.016;2024-03-08T10:05:34;53.08;;;27.77;;
44774;SDS011;31340;51.402;0.016;2024-03-08T10:08:02;49.88;;;24.60;;
44774;SDS011;31340;51.402;0.016;2024-03-08T10:10:34;50.22;;;26.15;;
44774;SDS011;31340;51.402;0.016;2024-03-08T10:13:09;47.58;;;25.45;;
44774;SDS011;31340;51.402;0.016;2024-03-08T10:15:39;48.47;;;25.08;;
44774;SDS011;31340;51.402;0.016;2024-03-08T10:18:07;47.13;;;25.27;;
44774;SDS011;31340;51.402;0.016;2024-03-08T10:20:35;49.80;;;27.23;;
44774;SDS011;31340;51.402;0.016;2024-03-08T10:23:03;45.55;;;24.67;;
44774;SDS011;31340;51.402;0.016;2024-03-08T10:25:38;45.67;;;24.30;;
44774;SDS011;31340;51.402;0.016;2024-03-08T10:28:06;48.55;;;25.42;;
44774;SDS011;31340;51.402;0.016;2024-03-08T10:30:34;42.65;;;25.23;;
44774;SDS011;31340;51.402;0.016;2024-03-08T10:33:02;44.05;;;24.70;;
44774;SDS011;31340;51.402;0.016;2024-03-08T10:35:32;46.88;;;26.98;;
44774;SDS011;31340;51.402;0.016;2024-03-08T10:38:00;44.70;;;24.83;;
44774;SDS011;31340;51.402;0.016;2024-03-08T10:40:32;45.95;;;25.55;;
44774;SDS011;31340;51.402;0.016;2024-03-08T10:43:00;41.78;;;23.58;;
44774;SDS011;31340;51.402;0.016;2024-03-08T10:45:40;47.55;;;24.30;;
44774;SDS011;31340;51.402;0.016;2024-03-08T10:51:05;41.40;;;23.85;;
44774;SDS011;31340;51.402;0.016;2024-03-08T10:53:34;43.22;;;23.50;;
44774;SDS011;31340;51.402;0.016;2024-03-08T10:56:06;45.05;;;23.73;;
44774;SDS011;31340;51.402;0.016;2024-03-08T10:58:36;47.90;;;24.80;;
44774;SDS011;31340;51.402;0.016;2024-03-08T11:01:05;43.92;;;23.75;;
44774;SDS011;31340;51.402;0.016;2024-03-08T11:06:07;43.17;;;24.00;;
44774;SDS011;31340;51.402;0.016;2024-03-08T11:08:36;40.53;;;24.05;;
44774;SDS011;31340;51.402;0.016;2024-03-08T11:11:05;42.55;;;24.48;;
44774;SDS011;31340;51.402;0.016;2024-03-08T11:14:00;44.13;;;22.70;;
44774;SDS011;31340;51.402;0.016;2024-03-08T11:19:06;44.63;;;23.20;;
44774;SDS011;31340;51.402;0.016;2024-03-08T11:21:57;40.70;;;23.38;;
44774;SDS011;31340;51.402;0.016;2024-03-08T11:24:27;42.75;;;23.25;;
44774;SDS011;31340;51.402;0.016;2024-03-08T11:26:56;39.25;;;22.77;;
44774;SDS011;31340;51.402;0.016;2024-03-08T11:32:27;34.90;;;21.52;;
44774;SDS011;31340;51.402;0.016;2024-03-08T11:34:55;38.05;;;21.95;;
44774;SDS011;31340;51.402;0.016;2024-03-08T11:37:23;36.60;;;21.95;;
44774;SDS011;31340;51.402;0.016;2024-03-08T11:39:51;41.38;;;22.55;;
44774;SDS011;31340;51.402;0.016;2024-03-08T11:42:26;42.63;;;23.33;;
44774;SDS011;31340;51.402;0.016;2024-03-08T11:44:53;38.63;;;23.55;;
44774;SDS011;31340;51.402;0.016;2024-03-08T11:47:21;39.17;;;23.02;;
44774;SDS011;31340;51.402;0.016;2024-03-08T11:49:49;41.40;;;22.42;;
44774;SDS011;31340;51.402;0.016;2024-03-08T11:52:17;38.70;;;22.33;;
44774;SDS011;31340;51.402;0.016;2024-03-08T11:54:52;40.17;;;22.52;;
44774;SDS011;31340;51.402;0.016;2024-03-08T11:57:22;40.63;;;22.30;;
44774;SDS011;31340;51.402;0.016;2024-03-08T11:59:51;38.58;;;23.10;;
44774;SDS011;31340;51.402;0.016;2024-03-08T12:02:24;38.70;;;23.65;;
44774;SDS011;31340;51.402;0.016;2024-03-08T12:04:58;38.75;;;22.70;;
44774;SDS011;31340;51.402;0.016;2024-03-08T12:07:28;41.47;;;25.45;;
44774;SDS011;31340;51.402;0.016;2024-03-08T12:12:45;43.85;;;25.88;;
44774;SDS011;31340;51.402;0.016;2024-03-08T12:15:15;43.33;;;25.30;;
44774;SDS011;31340;51.402;0.016;2024-03-08T12:17:45;45.80;;;24.98;;
44774;SDS011;31340;51.402;0.016;2024-03-08T12:22:50;45.45;;;25.77;;
44774;SDS011;31340;51.402;0.016;2024-03-08T12:25:20;39.60;;;24.00;;
44774;SDS011;31340;51.402;0.016;2024-03-08T12:27:48;38.47;;;25.40;;
44774;SDS011;31340;51.402;0.016;2024-03-08T12:30:17;44.80;;;25.98;;
44774;SDS011;31340;51.402;0.016;2024-03-08T12:32:47;38.40;;;25.55;;
44774;SDS011;31340;51.402;0.016;2024-03-08T12:35:16;43.80;;;26.20;;
44774;SDS011;31340;51.402;0.016;2024-03-08T12:37:43;38.47;;;24.35;;
44774;SDS011;31340;51.402;0.016;2024-03-08T12:40:11;42.85;;;26.88;;
44774;SDS011;31340;51.402;0.016;2024-03-08T12:42:44;47.63;;;25.45;;
44774;SDS011;31340;51.402;0.016;2024-03-08T12:45:14;45.13;;;27.08;;
44774;SDS011;31340;51.402;0.016;2024-03-08T12:47:42;44.35;;;26.98;;
44774;SDS011;31340;51.402;0.016;2024-03-08T12:50:10;44.28;;;27.65;;
44774;SDS011;31340;51.402;0.016;2024-03-08T12:52:38;45.28;;;27.75;;
44774;SDS011;31340;51.402;0.016;2024-03-08T12:55:06;49.42;;;28.38;;
44774;SDS011;31340;51.402;0.016;2024-03-08T12:57:34;49.85;;;29.00;;
44774;SDS011;31340;51.402;0.016;2024-03-08T13:00:03;45.78;;;27.60;;
44774;SDS011;31340;51.402;0.016;2024-03-08T13:02:31;45.53;;;26.85;;
44774;SDS011;31340;51.402;0.016;2024-03-08T13:05:02;45.92;;;27.75;;
44774;SDS011;31340;51.402;0.016;2024-03-08T13:07:32;41.75;;;26.83;;
44774;SDS011;31340;51.402;0.016;2024-03-08T13:10:01;50.58;;;28.45;;
44774;SDS011;31340;51.402;0.016;2024-03-08T13:12:28;43.47;;;28.27;;
44774;SDS011;31340;51.402;0.016;2024-03-08T13:14:56;46.15;;;28.30;;
44774;SDS011;31340;51.402;0.016;2024-03-08T13:17:23;44.78;;;27.50;;
44774;SDS011;31340;51.402;0.016;2024-03-08T13:19:51;52.40;;;29.65;;
44774;SDS011;31340;51.402;0.016;2024-03-08T13:22:22;43.92;;;29.35;;
44774;SDS011;31340;51.402;0.016;2024-03-08T13:24:50;45.17;;;28.10;;
44774;SDS011;31340;51.402;0.016;2024-03-08T13:27:21;45.95;;;28.58;;
44774;SDS011;31340;51.402;0.016;2024-03-08T13:32:18;43.35;;;28.05;;
44774;SDS011;31340;51.402;0.016;2024-03-08T13:37:21;43.35;;;28.30;;
44774;SDS011;31340;51.402;0.016;2024-03-08T13:39:49;45.63;;;28.88;;
44774;SDS011;31340;51.402;0.016;2024-03-08T13:42:16;50.33;;;29.50;;
44774;SDS011;31340;51.402;0.016;2024-03-08T13:44:47;48.28;;;30.27;;
44774;SDS011;31340;51.402;0.016;2024-03-08T13:49:43;57.17;;;30.58;;
44774;SDS011;31340;51.402;0.016;2024-03-08T13:52:11;49.83;;;30.15;;
44774;SDS011;31340;51.402;0.016;2024-03-08T13:54:41;46.50;;;30.60;;
44774;SDS011;31340;51.402;0.016;2024-03-08T13:57:09;49.90;;;29.17;;
44774;SDS011;31340;51.402;0.016;2024-03-08T13:59:37;48.17;;;28.80;;
44774;SDS011;31340;51.402;0.016;2024-03-08T14:02:05;49.33;;;28.58;;
44774;SDS011;31340;51.402;0.016;2024-03-08T14:04:33;50.28;;;29.63;;
44774;SDS011;31340;51.402;0.016;2024-03-08T14:07:01;47.75;;;30.00;;
44774;SDS011;31340;51.402;0.016;2024-03-08T14:09:31;49.83;;;28.98;;
44774;SDS011;31340;51.402;0.016;2024-03-08T14:11:59;47.80;;;28.73;;
44774;SDS011;31340;51.402;0.016;2024-03-08T14:14:26;46.17;;;29.17;;
44774;SDS011;31340;51.402;0.016;2024-03-08T14:16:54;44.05;;;27.98;;
44774;SDS011;31340;51.402;0.016;2024-03-08T14:19:27;49.30;;;30.15;;
44774;SDS011;31340;51.402;0.016;2024-03-08T14:21:55;50.50;;;29.40;;
44774;SDS011;31340;51.402;0.016;2024-03-08T14:24:23;47.67;;;27.70;;
44774;SDS011;31340;51.402;0.016;2024-03-08T14:26:51;49.22;;;30.00;;
44774;SDS011;31340;51.402;0.016;2024-03-08T14:29:18;50.22;;;30.88;;
44774;SDS011;31340;51.402;0.016;2024-03-08T14:31:46;48.88;;;29.60;;
44774;SDS011;31340;51.402;0.016;2024-03-08T14:34:14;48.00;;;29.42;;
44774;SDS011;31340;51.402;0.016;2024-03-08T14:36:42;46.05;;;28.40;;
44774;SDS011;31340;51.402;0.016;2024-03-08T14:39:10;45.35;;;27.38;;
44774;SDS011;31340;51.402;0.016;2024-03-08T14:41:38;46.97;;;29.08;;
44774;SDS011;31340;51.402;0.016;2024-03-08T14:44:05;56.85;;;29.75;;
44774;SDS011;31340;51.402;0.016;2024-03-08T14:46:33;51.65;;;29.70;;
44774;SDS011;31340;51.402;0.016;2024-03-08T14:49:01;56.17;;;31.63;;
44774;SDS011;31340;51.402;0.016;2024-03-08T14:51:28;51.92;;;29.50;;
44774;SDS011;31340;51.402;0.016;2024-03-08T14:53:56;54.85;;;30.85;;
44774;SDS011;31340;51.402;0.016;2024-03-08T14:56:24;49.83;;;28.42;;
44774;SDS011;31340;51.402;0.016;2024-03-08T14:58:54;49.65;;;30.75;;